sensor_id;sensor_type;location;lat;lon;timestamp;P1;durP1;ratioP1;P2;durP2;ratioP2
48076;SDS011;33854;57.708;12.008;2023-05-27T00:00:29;19.67;;;4.53;;
48076;SDS011;33854;57.708;12.008;2023-05-27T00:02:57;25.35;;;5.30;;
48076;SDS011;33854;57.708;12.008;2023-05-27T00:05:25;28.95;;;5.13;;
48076;SDS011;33854;57.708;12.008;2023-05-27T00:07:50;21.60;;;4.27;;
48076;SDS011;33854;57.708;12.008;2023-05-27T00:10:16;23.93;;;5.33;;
48076;SDS011;33854;57.708;12.008;2023-05-27T00:12:41;26.17;;;5.43;;
48076;SDS011;33854;57.708;12.008;2023-05-27T00:15:07;23.17;;;5.37;;
48076;SDS011;33854;57.708;12.008;2023-05-27T00:17:33;19.17;;;4.28;;
48076;SDS011;33854;57.708;12.008;2023-05-27T00:20:00;23.25;;;5.00;;
48076;SDS011;33854;57.708;12.008;2023-05-27T00:22:31;20.10;;;5.70;;
48076;SDS011;33854;57.708;12.008;2023-05-27T00:24:57;27.97;;;5.30;;
48076;SDS011;33854;57.708;12.008;2023-05-27T00:27:22;33.67;;;5.80;;
48076;SDS011;33854;57.708;12.008;2023-05-27T00:29:48;20.50;;;4.67;;
48076;SDS011;33854;57.708;12.008;2023-05-27T00:32:13;26.43;;;5.57;;
48076;SDS011;33854;57.708;12.008;2023-05-27T00:34:39;23.23;;;5.23;;
48076;SDS011;33854;57.708;12.008;2023-05-27T00:37:04;26.37;;;5.20;;
48076;SDS011;33854;57.708;12.008;2023-05-27T00:41:56;21.40;;;4.90;;
48076;SDS011;33854;57.708;12.008;2023-05-27T00:44:22;22.80;;;4.60;;
48076;SDS011;33854;57.708;12.008;2023-05-27T00:46:48;20.13;;;4.77;;
48076;SDS011;33854;57.708;12.008;2023-05-27T00:49:14;21.10;;;4.93;;
48076;SDS011;33854;57.708;12.008;2023-05-27T00:51:39;29.63;;;5.10;;
48076;SDS011;33854;57.708;12.008;2023-05-27T00:54:06;24.33;;;5.03;;
48076;SDS011;33854;57.708;12.008;2023-05-27T00:56:33;24.13;;;5.03;;
48076;SDS011;33854;57.708;12.008;2023-05-27T00:58:58;16.90;;;4.57;;
48076;SDS011;33854;57.708;12.008;2023-05-27T01:01:24;23.70;;;5.60;;
48076;SDS011;33854;57.708;12.008;2023-05-27T01:03:53;29.33;;;4.95;;
48076;SDS011;33854;57.708;12.008;2023-05-27T01:06:33;28.30;;;5.38;;
48076;SDS011;33854;57.708;12.008;2023-05-27T01:14:38;26.65;;;6.20;;
48076;SDS011;33854;57.708;12.008;2023-05-27T01:17:06;29.08;;;5.45;;
48076;SDS011;33854;57.708;12.008;2023-05-27T01:19:35;30.63;;;5.93;;
48076;SDS011;33854;57.708;12.008;2023-05-27T01:22:02;20.33;;;5.38;;
48076;SDS011;33854;57.708;12.008;2023-05-27T01:26:56;27.83;;;6.28;;
48076;SDS011;33854;57.708;12.008;2023-05-27T01:29:21;20.73;;;4.90;;
48076;SDS011;33854;57.708;12.008;2023-05-27T01:31:51;21.40;;;4.63;;
48076;SDS011;33854;57.708;12.008;2023-05-27T01:34:33;20.75;;;4.93;;
48076;SDS011;33854;57.708;12.008;2023-05-27T01:37:16;21.77;;;5.43;;
48076;SDS011;33854;57.708;12.008;2023-05-27T01:39:44;23.20;;;5.22;;
48076;SDS011;33854;57.708;12.008;2023-05-27T01:42:11;25.50;;;5.00;;
48076;SDS011;33854;57.708;12.008;2023-05-27T01:44:37;28.00;;;5.83;;
48076;SDS011;33854;57.708;12.008;2023-05-27T01:47:04;38.35;;;7.38;;
48076;SDS011;33854;57.708;12.008;2023-05-27T01:49:30;20.60;;;5.13;;
48076;SDS011;33854;57.708;12.008;2023-05-27T01:51:55;37.77;;;5.83;;
48076;SDS011;33854;57.708;12.008;2023-05-27T01:54:21;27.57;;;5.33;;
48076;SDS011;33854;57.708;12.008;2023-05-27T01:56:46;33.83;;;5.03;;
48076;SDS011;33854;57.708;12.008;2023-05-27T01:59:12;25.97;;;6.70;;
48076;SDS011;33854;57.708;12.008;2023-05-27T02:01:37;28.27;;;6.10;;
48076;SDS011;33854;57.708;12.008;2023-05-27T02:04:03;27.27;;;6.57;;
48076;SDS011;33854;57.708;12.008;2023-05-27T02:06:29;29.70;;;6.13;;
48076;SDS011;33854;57.708;12.008;2023-05-27T02:08:54;34.50;;;6.30;;
48076;SDS011;33854;57.708;12.008;2023-05-27T02:11:20;33.60;;;7.13;;
48076;SDS011;33854;57.708;12.008;2023-05-27T02:13:46;34.27;;;7.23;;
48076;SDS011;33854;57.708;12.008;2023-05-27T02:16:11;34.03;;;6.73;;
48076;SDS011;33854;57.708;12.008;2023-05-27T02:18:37;27.20;;;5.30;;
48076;SDS011;33854;57.708;12.008;2023-05-27T02:21:04;26.75;;;5.90;;
48076;SDS011;33854;57.708;12.008;2023-05-27T02:23:31;27.23;;;6.18;;
48076;SDS011;33854;57.708;12.008;2023-05-27T02:25:57;34.63;;;6.10;;
48076;SDS011;33854;57.708;12.008;2023-05-27T02:28:23;28.07;;;5.87;;
48076;SDS011;33854;57.708;12.008;2023-05-27T02:30:48;26.30;;;5.93;;
48076;SDS011;33854;57.708;12.008;2023-05-27T02:33:14;28.20;;;6.13;;
48076;SDS011;33854;57.708;12.008;2023-05-27T02:35:40;24.60;;;6.50;;
48076;SDS011;33854;57.708;12.008;2023-05-27T02:38:05;30.10;;;6.30;;
48076;SDS011;33854;57.708;12.008;2023-05-27T02:40:30;25.53;;;6.43;;
48076;SDS011;33854;57.708;12.008;2023-05-27T02:42:56;21.40;;;5.97;;
48076;SDS011;33854;57.708;12.008;2023-05-27T02:45:22;22.53;;;4.80;;
48076;SDS011;33854;57.708;12.008;2023-05-27T02:47:47;21.23;;;5.47;;
48076;SDS011;33854;57.708;12.008;2023-05-27T02:50:13;24.30;;;5.43;;
48076;SDS011;33854;57.708;12.008;2023-05-27T02:52:39;29.33;;;5.73;;
48076;SDS011;33854;57.708;12.008;2023-05-27T02:55:04;31.73;;;5.87;;
48076;SDS011;33854;57.708;12.008;2023-05-27T02:57:31;23.70;;;5.47;;
48076;SDS011;33854;57.708;12.008;2023-05-27T02:59:56;23.63;;;5.40;;
48076;SDS011;33854;57.708;12.008;2023-05-27T03:02:21;26.93;;;6.93;;
48076;SDS011;33854;57.708;12.008;2023-05-27T03:04:47;33.73;;;5.93;;
48076;SDS011;33854;57.708;12.008;2023-05-27T03:07:13;29.52;;;5.75;;
48076;SDS011;33854;57.708;12.008;2023-05-27T03:09:39;24.57;;;5.07;;
48076;SDS011;33854;57.708;12.008;2023-05-27T03:12:04;35.23;;;7.17;;
48076;SDS011;33854;57.708;12.008;2023-05-27T03:14:30;19.43;;;5.50;;
48076;SDS011;33854;57.708;12.008;2023-05-27T03:16:56;31.97;;;5.47;;
48076;SDS011;33854;57.708;12.008;2023-05-27T03:19:21;28.77;;;4.93;;
48076;SDS011;33854;57.708;12.008;2023-05-27T03:21:47;27.87;;;5.73;;
48076;SDS011;33854;57.708;12.008;2023-05-27T03:24:12;29.67;;;5.70;;
48076;SDS011;33854;57.708;12.008;2023-05-27T03:26:38;18.17;;;5.40;;
48076;SDS011;33854;57.708;12.008;2023-05-27T03:29:04;20.90;;;4.63;;
48076;SDS011;33854;57.708;12.008;2023-05-27T03:31:30;23.30;;;5.03;;
48076;SDS011;33854;57.708;12.008;2023-05-27T03:33:56;25.33;;;4.80;;
48076;SDS011;33854;57.708;12.008;2023-05-27T03:36:21;22.30;;;5.27;;
48076;SDS011;33854;57.708;12.008;2023-05-27T03:38:47;22.80;;;6.10;;
48076;SDS011;33854;57.708;12.008;2023-05-27T03:41:12;19.83;;;5.30;;
48076;SDS011;33854;57.708;12.008;2023-05-27T03:43:38;27.83;;;5.63;;
48076;SDS011;33854;57.708;12.008;2023-05-27T03:46:03;25.37;;;5.63;;
48076;SDS011;33854;57.708;12.008;2023-05-27T03:48:29;33.70;;;5.97;;
48076;SDS011;33854;57.708;12.008;2023-05-27T03:50:54;25.30;;;4.97;;
48076;SDS011;33854;57.708;12.008;2023-05-27T03:53:20;31.30;;;5.83;;
48076;SDS011;33854;57.708;12.008;2023-05-27T03:55:45;26.10;;;5.30;;
48076;SDS011;33854;57.708;12.008;2023-05-27T03:58:11;17.30;;;4.23;;
48076;SDS011;33854;57.708;12.008;2023-05-27T04:00:39;26.90;;;5.55;;
48076;SDS011;33854;57.708;12.008;2023-05-27T04:03:05;27.10;;;5.13;;
48076;SDS011;33854;57.708;12.008;2023-05-27T04:05:30;25.67;;;5.57;;
48076;SDS011;33854;57.708;12.008;2023-05-27T04:07:56;21.00;;;4.73;;
48076;SDS011;33854;57.708;12.008;2023-05-27T04:10:21;23.00;;;4.40;;
48076;SDS011;33854;57.708;12.008;2023-05-27T04:12:47;19.67;;;5.67;;
48076;SDS011;33854;57.708;12.008;2023-05-27T04:15:12;16.50;;;4.60;;
48076;SDS011;33854;57.708;12.008;2023-05-27T04:17:38;25.40;;;5.90;;
48076;SDS011;33854;57.708;12.008;2023-05-27T04:20:03;18.03;;;4.27;;
48076;SDS011;33854;57.708;12.008;2023-05-27T04:22:39;20.70;;;4.95;;
48076;SDS011;33854;57.708;12.008;2023-05-27T04:25:06;17.92;;;4.60;;
48076;SDS011;33854;57.708;12.008;2023-05-27T04:27:31;23.17;;;4.87;;
48076;SDS011;33854;57.708;12.008;2023-05-27T04:29:57;22.77;;;5.13;;
48076;SDS011;33854;57.708;12.008;2023-05-27T04:32:23;25.27;;;5.17;;
48076;SDS011;33854;57.708;12.008;2023-05-27T04:34:50;25.23;;;4.90;;
48076;SDS011;33854;57.708;12.008;2023-05-27T04:37:15;21.93;;;5.40;;
48076;SDS011;33854;57.708;12.008;2023-05-27T04:39:42;15.63;;;5.13;;
48076;SDS011;33854;57.708;12.008;2023-05-27T04:42:11;19.55;;;4.13;;
48076;SDS011;33854;57.708;12.008;2023-05-27T04:44:37;14.63;;;4.47;;
48076;SDS011;33854;57.708;12.008;2023-05-27T04:47:04;26.10;;;5.40;;
48076;SDS011;33854;57.708;12.008;2023-05-27T04:49:30;15.65;;;4.50;;
48076;SDS011;33854;57.708;12.008;2023-05-27T04:51:56;18.55;;;4.40;;
48076;SDS011;33854;57.708;12.008;2023-05-27T04:54:22;21.27;;;4.70;;
48076;SDS011;33854;57.708;12.008;2023-05-27T04:56:48;20.67;;;4.97;;
48076;SDS011;33854;57.708;12.008;2023-05-27T04:59:16;19.25;;;4.68;;
48076;SDS011;33854;57.708;12.008;2023-05-27T05:01:44;20.77;;;4.75;;
48076;SDS011;33854;57.708;12.008;2023-05-27T05:04:28;28.40;;;5.05;;
48076;SDS011;33854;57.708;12.008;2023-05-27T05:06:54;17.10;;;3.93;;
48076;SDS011;33854;57.708;12.008;2023-05-27T05:09:20;21.48;;;4.30;;
48076;SDS011;33854;57.708;12.008;2023-05-27T05:11:46;14.23;;;4.27;;
48076;SDS011;33854;57.708;12.008;2023-05-27T05:14:11;15.87;;;4.47;;
48076;SDS011;33854;57.708;12.008;2023-05-27T05:16:37;13.83;;;3.47;;
48076;SDS011;33854;57.708;12.008;2023-05-27T05:19:02;15.37;;;4.10;;
48076;SDS011;33854;57.708;12.008;2023-05-27T05:21:28;15.23;;;3.47;;
48076;SDS011;33854;57.708;12.008;2023-05-27T05:23:53;11.97;;;3.07;;
48076;SDS011;33854;57.708;12.008;2023-05-27T05:26:19;13.87;;;3.87;;
48076;SDS011;33854;57.708;12.008;2023-05-27T05:28:44;10.37;;;2.17;;
48076;SDS011;33854;57.708;12.008;2023-05-27T05:31:10;11.87;;;3.20;;
48076;SDS011;33854;57.708;12.008;2023-05-27T05:33:35;12.40;;;3.20;;
48076;SDS011;33854;57.708;12.008;2023-05-27T05:36:01;12.97;;;2.60;;
48076;SDS011;33854;57.708;12.008;2023-05-27T05:38:27;17.95;;;3.15;;
48076;SDS011;33854;57.708;12.008;2023-05-27T05:40:52;19.47;;;4.40;;
48076;SDS011;33854;57.708;12.008;2023-05-27T05:45:45;15.30;;;2.85;;
48076;SDS011;33854;57.708;12.008;2023-05-27T05:48:10;12.63;;;3.00;;
48076;SDS011;33854;57.708;12.008;2023-05-27T05:50:36;14.67;;;2.57;;
48076;SDS011;33854;57.708;12.008;2023-05-27T05:53:02;11.27;;;2.97;;
48076;SDS011;33854;57.708;12.008;2023-05-27T05:55:27;13.60;;;2.63;;
48076;SDS011;33854;57.708;12.008;2023-05-27T05:57:52;11.80;;;2.50;;
48076;SDS011;33854;57.708;12.008;2023-05-27T06:00:18;9.27;;;2.20;;
48076;SDS011;33854;57.708;12.008;2023-05-27T06:02:44;10.70;;;2.57;;
48076;SDS011;33854;57.708;12.008;2023-05-27T06:05:09;12.87;;;2.80;;
48076;SDS011;33854;57.708;12.008;2023-05-27T06:07:35;8.40;;;1.97;;
48076;SDS011;33854;57.708;12.008;2023-05-27T06:10:00;5.10;;;1.77;;
48076;SDS011;33854;57.708;12.008;2023-05-27T06:12:26;10.60;;;2.53;;
48076;SDS011;33854;57.708;12.008;2023-05-27T06:14:51;8.37;;;1.93;;
48076;SDS011;33854;57.708;12.008;2023-05-27T06:17:17;6.83;;;1.37;;
48076;SDS011;33854;57.708;12.008;2023-05-27T06:19:42;4.47;;;1.37;;
48076;SDS011;33854;57.708;12.008;2023-05-27T06:22:08;8.70;;;1.97;;
48076;SDS011;33854;57.708;12.008;2023-05-27T06:24:33;7.73;;;1.97;;
48076;SDS011;33854;57.708;12.008;2023-05-27T06:26:58;7.10;;;2.10;;
48076;SDS011;33854;57.708;12.008;2023-05-27T06:29:25;9.15;;;2.22;;
48076;SDS011;33854;57.708;12.008;2023-05-27T06:31:51;7.43;;;2.17;;
48076;SDS011;33854;57.708;12.008;2023-05-27T06:34:16;6.77;;;1.63;;
48076;SDS011;33854;57.708;12.008;2023-05-27T06:36:42;5.17;;;1.50;;
48076;SDS011;33854;57.708;12.008;2023-05-27T06:39:07;6.03;;;1.73;;
48076;SDS011;33854;57.708;12.008;2023-05-27T06:41:34;9.25;;;2.53;;
48076;SDS011;33854;57.708;12.008;2023-05-27T06:43:59;11.17;;;2.43;;
48076;SDS011;33854;57.708;12.008;2023-05-27T06:46:26;9.07;;;2.60;;
48076;SDS011;33854;57.708;12.008;2023-05-27T06:48:51;11.57;;;2.38;;
48076;SDS011;33854;57.708;12.008;2023-05-27T06:51:17;7.10;;;2.00;;
48076;SDS011;33854;57.708;12.008;2023-05-27T06:53:43;10.98;;;2.63;;
48076;SDS011;33854;57.708;12.008;2023-05-27T06:56:08;10.77;;;2.13;;
48076;SDS011;33854;57.708;12.008;2023-05-27T06:58:34;9.27;;;2.70;;
48076;SDS011;33854;57.708;12.008;2023-05-27T07:00:59;9.53;;;2.10;;
48076;SDS011;33854;57.708;12.008;2023-05-27T07:03:25;14.20;;;3.23;;
48076;SDS011;33854;57.708;12.008;2023-05-27T07:05:50;6.30;;;2.03;;
48076;SDS011;33854;57.708;12.008;2023-05-27T07:08:16;10.33;;;1.97;;
48076;SDS011;33854;57.708;12.008;2023-05-27T07:10:41;7.87;;;1.97;;
48076;SDS011;33854;57.708;12.008;2023-05-27T07:13:07;8.17;;;1.60;;
48076;SDS011;33854;57.708;12.008;2023-05-27T07:15:32;8.33;;;2.30;;
48076;SDS011;33854;57.708;12.008;2023-05-27T07:17:58;11.97;;;2.20;;
48076;SDS011;33854;57.708;12.008;2023-05-27T07:20:23;10.97;;;2.03;;
48076;SDS011;33854;57.708;12.008;2023-05-27T07:22:49;9.63;;;2.57;;
48076;SDS011;33854;57.708;12.008;2023-05-27T07:25:14;11.43;;;3.40;;
48076;SDS011;33854;57.708;12.008;2023-05-27T07:27:40;10.87;;;2.80;;
48076;SDS011;33854;57.708;12.008;2023-05-27T07:30:05;10.57;;;3.17;;
48076;SDS011;33854;57.708;12.008;2023-05-27T07:32:31;10.85;;;2.58;;
48076;SDS011;33854;57.708;12.008;2023-05-27T07:34:57;11.73;;;2.40;;
48076;SDS011;33854;57.708;12.008;2023-05-27T07:37:23;9.20;;;3.07;;
48076;SDS011;33854;57.708;12.008;2023-05-27T07:39:49;12.67;;;2.53;;
48076;SDS011;33854;57.708;12.008;2023-05-27T07:42:16;8.38;;;2.10;;
48076;SDS011;33854;57.708;12.008;2023-05-27T07:44:42;13.18;;;2.60;;
48076;SDS011;33854;57.708;12.008;2023-05-27T07:47:07;7.13;;;2.10;;
48076;SDS011;33854;57.708;12.008;2023-05-27T07:49:32;8.33;;;2.20;;
48076;SDS011;33854;57.708;12.008;2023-05-27T07:51:58;9.63;;;2.53;;
48076;SDS011;33854;57.708;12.008;2023-05-27T07:54:24;8.10;;;1.83;;
48076;SDS011;33854;57.708;12.008;2023-05-27T07:56:51;9.27;;;2.08;;
48076;SDS011;33854;57.708;12.008;2023-05-27T07:59:17;5.83;;;1.70;;
48076;SDS011;33854;57.708;12.008;2023-05-27T08:01:42;9.13;;;2.43;;
48076;SDS011;33854;57.708;12.008;2023-05-27T08:04:08;9.23;;;2.50;;
48076;SDS011;33854;57.708;12.008;2023-05-27T08:06:33;12.23;;;2.90;;
48076;SDS011;33854;57.708;12.008;2023-05-27T08:08:58;12.83;;;2.40;;
48076;SDS011;33854;57.708;12.008;2023-05-27T08:11:25;6.30;;;2.22;;
48076;SDS011;33854;57.708;12.008;2023-05-27T08:13:50;8.90;;;2.20;;
48076;SDS011;33854;57.708;12.008;2023-05-27T08:16:16;11.63;;;2.87;;
48076;SDS011;33854;57.708;12.008;2023-05-27T08:18:41;10.93;;;2.83;;
48076;SDS011;33854;57.708;12.008;2023-05-27T08:21:07;14.27;;;3.13;;
48076;SDS011;33854;57.708;12.008;2023-05-27T08:23:32;14.43;;;2.70;;
48076;SDS011;33854;57.708;12.008;2023-05-27T08:25:57;13.87;;;3.30;;
48076;SDS011;33854;57.708;12.008;2023-05-27T08:28:23;11.97;;;3.27;;
48076;SDS011;33854;57.708;12.008;2023-05-27T08:30:48;12.57;;;3.33;;
48076;SDS011;33854;57.708;12.008;2023-05-27T08:33:14;13.73;;;2.60;;
48076;SDS011;33854;57.708;12.008;2023-05-27T08:35:39;14.77;;;3.37;;
48076;SDS011;33854;57.708;12.008;2023-05-27T08:38:06;12.52;;;3.28;;
48076;SDS011;33854;57.708;12.008;2023-05-27T08:40:31;11.27;;;2.83;;
48076;SDS011;33854;57.708;12.008;2023-05-27T08:42:57;11.97;;;2.90;;
48076;SDS011;33854;57.708;12.008;2023-05-27T08:45:22;13.15;;;2.88;;
48076;SDS011;33854;57.708;12.008;2023-05-27T08:47:48;12.93;;;3.33;;
48076;SDS011;33854;57.708;12.008;2023-05-27T08:50:14;9.45;;;2.25;;
48076;SDS011;33854;57.708;12.008;2023-05-27T08:52:43;11.90;;;2.67;;
48076;SDS011;33854;57.708;12.008;2023-05-27T08:55:11;14.85;;;2.70;;
48076;SDS011;33854;57.708;12.008;2023-05-27T08:57:42;12.70;;;2.58;;
48076;SDS011;33854;57.708;12.008;2023-05-27T09:00:16;11.70;;;3.28;;
48076;SDS011;33854;57.708;12.008;2023-05-27T09:02:42;12.48;;;3.10;;
48076;SDS011;33854;57.708;12.008;2023-05-27T09:05:08;10.80;;;3.13;;
48076;SDS011;33854;57.708;12.008;2023-05-27T09:07:35;9.48;;;2.85;;
48076;SDS011;33854;57.708;12.008;2023-05-27T09:10:03;10.88;;;3.17;;
48076;SDS011;33854;57.708;12.008;2023-05-27T09:12:31;14.88;;;3.25;;
48076;SDS011;33854;57.708;12.008;2023-05-27T09:14:57;14.23;;;3.05;;
48076;SDS011;33854;57.708;12.008;2023-05-27T09:17:23;14.07;;;4.27;;
48076;SDS011;33854;57.708;12.008;2023-05-27T09:19:52;10.60;;;3.20;;
48076;SDS011;33854;57.708;12.008;2023-05-27T09:22:24;13.90;;;3.30;;
48076;SDS011;33854;57.708;12.008;2023-05-27T09:24:52;11.30;;;3.20;;
48076;SDS011;33854;57.708;12.008;2023-05-27T09:27:25;9.82;;;3.00;;
48076;SDS011;33854;57.708;12.008;2023-05-27T09:29:51;9.70;;;2.97;;
48076;SDS011;33854;57.708;12.008;2023-05-27T09:32:26;8.40;;;2.80;;
48076;SDS011;33854;57.708;12.008;2023-05-27T09:34:56;14.57;;;2.63;;
48076;SDS011;33854;57.708;12.008;2023-05-27T09:37:25;13.07;;;3.10;;
48076;SDS011;33854;57.708;12.008;2023-05-27T09:39:56;12.00;;;3.53;;
48076;SDS011;33854;57.708;12.008;2023-05-27T09:42:22;12.77;;;3.57;;
48076;SDS011;33854;57.708;12.008;2023-05-27T09:44:48;13.33;;;3.40;;
48076;SDS011;33854;57.708;12.008;2023-05-27T09:47:15;13.45;;;3.00;;
48076;SDS011;33854;57.708;12.008;2023-05-27T09:49:42;14.32;;;3.53;;
48076;SDS011;33854;57.708;12.008;2023-05-27T09:52:09;13.40;;;4.30;;
48076;SDS011;33854;57.708;12.008;2023-05-27T09:54:36;11.88;;;3.35;;
48076;SDS011;33854;57.708;12.008;2023-05-27T09:57:03;10.93;;;3.13;;
48076;SDS011;33854;57.708;12.008;2023-05-27T09:59:30;9.65;;;2.65;;
48076;SDS011;33854;57.708;12.008;2023-05-27T10:01:56;8.48;;;3.13;;
48076;SDS011;33854;57.708;12.008;2023-05-27T10:04:25;12.57;;;3.38;;
48076;SDS011;33854;57.708;12.008;2023-05-27T10:06:50;17.20;;;3.07;;
48076;SDS011;33854;57.708;12.008;2023-05-27T10:09:17;14.85;;;3.22;;
48076;SDS011;33854;57.708;12.008;2023-05-27T10:11:43;10.15;;;2.92;;
48076;SDS011;33854;57.708;12.008;2023-05-27T10:14:09;13.57;;;4.07;;
48076;SDS011;33854;57.708;12.008;2023-05-27T10:16:37;11.52;;;2.92;;
48076;SDS011;33854;57.708;12.008;2023-05-27T10:19:08;14.95;;;3.67;;
48076;SDS011;33854;57.708;12.008;2023-05-27T10:21:41;11.18;;;3.60;;
48076;SDS011;33854;57.708;12.008;2023-05-27T10:24:09;11.52;;;3.10;;
48076;SDS011;33854;57.708;12.008;2023-05-27T10:26:38;14.57;;;3.50;;
48076;SDS011;33854;57.708;12.008;2023-05-27T10:29:13;11.20;;;3.08;;
48076;SDS011;33854;57.708;12.008;2023-05-27T10:31:47;12.73;;;3.40;;
48076;SDS011;33854;57.708;12.008;2023-05-27T10:34:15;13.95;;;3.03;;
48076;SDS011;33854;57.708;12.008;2023-05-27T10:36:41;16.35;;;4.43;;
48076;SDS011;33854;57.708;12.008;2023-05-27T10:47:11;12.15;;;2.50;;
48076;SDS011;33854;57.708;12.008;2023-05-27T10:49:45;18.42;;;3.38;;
48076;SDS011;33854;57.708;12.008;2023-05-27T10:52:12;13.23;;;2.92;;
48076;SDS011;33854;57.708;12.008;2023-05-27T10:54:39;14.82;;;3.97;;
48076;SDS011;33854;57.708;12.008;2023-05-27T10:59:50;11.05;;;3.83;;
48076;SDS011;33854;57.708;12.008;2023-05-27T11:04:43;12.23;;;3.88;;
48076;SDS011;33854;57.708;12.008;2023-05-27T11:07:08;14.13;;;3.37;;
48076;SDS011;33854;57.708;12.008;2023-05-27T11:09:53;15.83;;;4.00;;
48076;SDS011;33854;57.708;12.008;2023-05-27T11:12:20;15.40;;;3.53;;
48076;SDS011;33854;57.708;12.008;2023-05-27T11:14:56;18.52;;;4.00;;
48076;SDS011;33854;57.708;12.008;2023-05-27T11:17:22;12.13;;;3.47;;
48076;SDS011;33854;57.708;12.008;2023-05-27T11:19:48;13.30;;;3.35;;
48076;SDS011;33854;57.708;12.008;2023-05-27T11:24:41;13.73;;;3.53;;
48076;SDS011;33854;57.708;12.008;2023-05-27T11:27:13;13.27;;;4.10;;
48076;SDS011;33854;57.708;12.008;2023-05-27T11:29:40;15.93;;;3.85;;
48076;SDS011;33854;57.708;12.008;2023-05-27T11:32:15;16.30;;;3.58;;
48076;SDS011;33854;57.708;12.008;2023-05-27T11:34:43;12.55;;;3.08;;
48076;SDS011;33854;57.708;12.008;2023-05-27T11:37:09;15.90;;;4.28;;
48076;SDS011;33854;57.708;12.008;2023-05-27T11:39:35;18.67;;;3.83;;
48076;SDS011;33854;57.708;12.008;2023-05-27T11:42:04;14.73;;;3.37;;
48076;SDS011;33854;57.708;12.008;2023-05-27T11:44:31;20.23;;;4.18;;
48076;SDS011;33854;57.708;12.008;2023-05-27T11:47:00;14.50;;;4.37;;
48076;SDS011;33854;57.708;12.008;2023-05-27T11:49:26;14.57;;;3.50;;
48076;SDS011;33854;57.708;12.008;2023-05-27T11:51:54;15.73;;;4.00;;
48076;SDS011;33854;57.708;12.008;2023-05-27T11:54:28;16.88;;;4.45;;
48076;SDS011;33854;57.708;12.008;2023-05-27T11:56:56;15.63;;;4.15;;
48076;SDS011;33854;57.708;12.008;2023-05-27T11:59:24;14.60;;;3.53;;
48076;SDS011;33854;57.708;12.008;2023-05-27T12:01:50;12.82;;;3.88;;
48076;SDS011;33854;57.708;12.008;2023-05-27T12:04:18;18.58;;;4.20;;
48076;SDS011;33854;57.708;12.008;2023-05-27T12:06:44;13.70;;;4.00;;
48076;SDS011;33854;57.708;12.008;2023-05-27T12:09:10;17.10;;;3.97;;
48076;SDS011;33854;57.708;12.008;2023-05-27T12:11:36;15.97;;;4.60;;
48076;SDS011;33854;57.708;12.008;2023-05-27T12:14:03;14.88;;;4.28;;
48076;SDS011;33854;57.708;12.008;2023-05-27T12:16:29;13.80;;;3.72;;
48076;SDS011;33854;57.708;12.008;2023-05-27T12:18:54;14.83;;;4.67;;
48076;SDS011;33854;57.708;12.008;2023-05-27T12:21:20;18.00;;;4.33;;
48076;SDS011;33854;57.708;12.008;2023-05-27T12:23:48;18.88;;;3.90;;
48076;SDS011;33854;57.708;12.008;2023-05-27T12:26:14;14.63;;;4.00;;
48076;SDS011;33854;57.708;12.008;2023-05-27T12:31:06;18.05;;;3.75;;
48076;SDS011;33854;57.708;12.008;2023-05-27T12:33:32;18.05;;;4.25;;
48076;SDS011;33854;57.708;12.008;2023-05-27T12:35:58;20.13;;;4.40;;
48076;SDS011;33854;57.708;12.008;2023-05-27T12:38:24;13.05;;;3.67;;
48076;SDS011;33854;57.708;12.008;2023-05-27T12:40:49;18.57;;;4.47;;
48076;SDS011;33854;57.708;12.008;2023-05-27T12:43:15;18.17;;;4.60;;
48076;SDS011;33854;57.708;12.008;2023-05-27T12:45:42;13.48;;;3.80;;
48076;SDS011;33854;57.708;12.008;2023-05-27T12:48:07;18.63;;;4.37;;
48076;SDS011;33854;57.708;12.008;2023-05-27T12:50:33;13.60;;;3.77;;
48076;SDS011;33854;57.708;12.008;2023-05-27T12:52:58;13.00;;;3.87;;
48076;SDS011;33854;57.708;12.008;2023-05-27T12:55:24;16.25;;;4.63;;
48076;SDS011;33854;57.708;12.008;2023-05-27T12:57:51;12.52;;;3.50;;
48076;SDS011;33854;57.708;12.008;2023-05-27T13:00:17;18.85;;;4.55;;
48076;SDS011;33854;57.708;12.008;2023-05-27T13:02:44;17.52;;;4.32;;
48076;SDS011;33854;57.708;12.008;2023-05-27T13:05:12;14.50;;;3.88;;
48076;SDS011;33854;57.708;12.008;2023-05-27T13:07:38;14.05;;;4.07;;
48076;SDS011;33854;57.708;12.008;2023-05-27T13:10:10;15.70;;;4.38;;
48076;SDS011;33854;57.708;12.008;2023-05-27T13:12:39;15.48;;;4.47;;
48076;SDS011;33854;57.708;12.008;2023-05-27T13:15:05;17.15;;;4.30;;
48076;SDS011;33854;57.708;12.008;2023-05-27T13:17:33;12.05;;;3.80;;
48076;SDS011;33854;57.708;12.008;2023-05-27T13:19:58;16.02;;;3.88;;
48076;SDS011;33854;57.708;12.008;2023-05-27T13:22:24;18.52;;;4.30;;
48076;SDS011;33854;57.708;12.008;2023-05-27T13:24:50;15.18;;;3.60;;
48076;SDS011;33854;57.708;12.008;2023-05-27T13:27:16;15.40;;;3.97;;
48076;SDS011;33854;57.708;12.008;2023-05-27T13:29:42;16.77;;;3.80;;
48076;SDS011;33854;57.708;12.008;2023-05-27T13:32:07;13.60;;;3.37;;
48076;SDS011;33854;57.708;12.008;2023-05-27T13:34:33;13.82;;;3.70;;
48076;SDS011;33854;57.708;12.008;2023-05-27T13:36:59;17.00;;;3.85;;
48076;SDS011;33854;57.708;12.008;2023-05-27T13:39:24;15.83;;;4.17;;
48076;SDS011;33854;57.708;12.008;2023-05-27T13:41:50;18.37;;;5.20;;
48076;SDS011;33854;57.708;12.008;2023-05-27T13:44:15;17.27;;;3.77;;
48076;SDS011;33854;57.708;12.008;2023-05-27T13:46:41;14.00;;;3.93;;
48076;SDS011;33854;57.708;12.008;2023-05-27T13:49:06;12.57;;;3.90;;
48076;SDS011;33854;57.708;12.008;2023-05-27T13:51:32;13.17;;;3.40;;
48076;SDS011;33854;57.708;12.008;2023-05-27T13:53:58;10.82;;;3.10;;
48076;SDS011;33854;57.708;12.008;2023-05-27T13:56:23;15.70;;;4.37;;
48076;SDS011;33854;57.708;12.008;2023-05-27T13:58:50;15.45;;;3.70;;
48076;SDS011;33854;57.708;12.008;2023-05-27T14:01:17;11.93;;;3.47;;
48076;SDS011;33854;57.708;12.008;2023-05-27T14:03:43;13.68;;;3.60;;
48076;SDS011;33854;57.708;12.008;2023-05-27T14:06:08;12.10;;;3.73;;
48076;SDS011;33854;57.708;12.008;2023-05-27T14:08:34;9.68;;;3.28;;
48076;SDS011;33854;57.708;12.008;2023-05-27T14:11:00;13.75;;;3.22;;
48076;SDS011;33854;57.708;12.008;2023-05-27T14:15:52;11.30;;;3.53;;
48076;SDS011;33854;57.708;12.008;2023-05-27T14:18:18;12.82;;;3.55;;
48076;SDS011;33854;57.708;12.008;2023-05-27T14:20:44;12.23;;;3.22;;
48076;SDS011;33854;57.708;12.008;2023-05-27T14:23:09;10.93;;;3.17;;
48076;SDS011;33854;57.708;12.008;2023-05-27T14:25:37;15.80;;;3.72;;
48076;SDS011;33854;57.708;12.008;2023-05-27T14:28:03;10.85;;;3.67;;
48076;SDS011;33854;57.708;12.008;2023-05-27T14:30:31;11.38;;;3.97;;
48076;SDS011;33854;57.708;12.008;2023-05-27T14:33:01;12.90;;;3.92;;
48076;SDS011;33854;57.708;12.008;2023-05-27T14:35:27;17.02;;;4.03;;
48076;SDS011;33854;57.708;12.008;2023-05-27T14:37:53;14.00;;;3.77;;
48076;SDS011;33854;57.708;12.008;2023-05-27T14:40:18;13.33;;;4.37;;
48076;SDS011;33854;57.708;12.008;2023-05-27T14:42:44;17.02;;;4.00;;
48076;SDS011;33854;57.708;12.008;2023-05-27T14:45:10;12.48;;;4.22;;
48076;SDS011;33854;57.708;12.008;2023-05-27T14:47:35;13.80;;;3.40;;
48076;SDS011;33854;57.708;12.008;2023-05-27T14:50:01;16.07;;;4.17;;
48076;SDS011;33854;57.708;12.008;2023-05-27T14:52:27;11.02;;;3.25;;